Time;durP1;ratioP1;P1;durP2;ratioP2;P2;SDS_P1;SDS_P2;PMS_P1;PMS_P2;Temp;Humidity;BMP_temperature;BMP_pressure;BME280_temperature;BME280_humidity;BME280_pressure;Samples;Min_cycle;Max_cycle;Signal;HPM_P1;HPM_P2
2023/07/31 00:01:54;;;;;;;7.18;2.38;;;16.90;99.90;;;;;;5092930;28;20118;-64
2023/07/31 00:04:19;;;;;;;7.88;2.58;;;16.90;99.90;;;;;;5093253;28;20093;-64
2023/07/31 00:06:45;;;;;;;7.43;2.67;;;16.90;99.90;;;;;;5091659;28;20044;-64
2023/07/31 00:09:11;;;;;;;7.28;2.20;;;16.90;99.90;;;;;;5093143;28;20040;-64
2023/07/31 00:11:36;;;;;;;8.68;2.70;;;16.90;99.90;;;;;;5093087;28;20538;-64
2023/07/31 00:14:02;;;;;;;8.10;2.40;;;16.90;99.90;;;;;;5090978;28;20119;-64
2023/07/31 00:16:28;;;;;;;7.28;2.58;;;16.90;99.90;;;;;;5091354;28;20044;-64
2023/07/31 00:18:54;;;;;;;8.48;2.78;;;16.90;99.90;;;;;;5092542;28;20059;-64
2023/07/31 00:21:19;;;;;;;6.15;2.72;;;16.90;99.90;;;;;;5092490;28;20083;-64
2023/07/31 00:23:45;;;;;;;6.88;2.20;;;16.90;99.90;;;;;;5091411;28;20032;-64
2023/07/31 00:26:11;;;;;;;7.90;3.08;;;16.90;99.90;;;;;;5090847;28;20032;-64
2023/07/31 00:28:36;;;;;;;9.82;3.33;;;16.90;99.90;;;;;;5092200;28;20464;-64
2023/07/31 00:31:03;;;;;;;7.82;3.05;;;16.90;99.90;;;;;;5091576;28;20044;-64
2023/07/31 00:33:31;;;;;;;6.47;2.80;;;16.80;99.90;;;;;;5090611;28;20041;-64
2023/07/31 00:35:57;;;;;;;7.95;2.72;;;16.90;99.90;;;;;;5091261;28;20043;-64
2023/07/31 00:38:22;;;;;;;8.63;3.08;;;16.80;99.90;;;;;;5091435;28;20040;-64
2023/07/31 00:40:48;;;;;;;7.80;2.88;;;16.80;99.90;;;;;;5090156;28;20044;-64
2023/07/31 00:43:14;;;;;;;9.70;3.00;;;16.80;99.90;;;;;;5091283;28;20504;-64
2023/07/31 00:45:39;;;;;;;8.57;2.70;;;16.80;99.90;;;;;;5092258;28;20047;-64
2023/07/31 00:48:06;;;;;;;7.05;2.80;;;16.80;99.90;;;;;;5090216;28;20047;-64
2023/07/31 00:50:33;;;;;;;8.85;2.63;;;16.80;99.90;;;;;;5090688;28;20095;-64
2023/07/31 00:52:58;;;;;;;8.07;2.72;;;16.80;99.90;;;;;;5090970;28;20046;-64
2023/07/31 00:55:25;;;;;;;9.95;3.08;;;16.70;99.90;;;;;;5090524;28;20044;-64
2023/07/31 00:57:55;;;;;;;6.93;2.45;;;16.70;99.90;;;;;;5091554;28;20055;-64
2023/07/31 01:00:21;;;;;;;10.18;3.17;;;16.70;99.90;;;;;;5092372;28;20044;-64
2023/07/31 01:02:48;;;;;;;13.52;3.38;;;16.70;99.90;;;;;;5091109;28;20036;-64
2023/07/31 01:05:14;;;;;;;7.70;3.17;;;16.70;99.90;;;;;;5092290;28;20047;-64
2023/07/31 01:07:54;;;;;;;9.38;3.40;;;16.70;99.90;;;;;;5090259;28;20044;-64
2023/07/31 01:10:23;;;;;;;10.65;3.40;;;16.70;99.90;;;;;;5090302;28;20083;-64
2023/07/31 01:12:52;;;;;;;8.90;3.20;;;16.70;99.90;;;;;;5090552;28;20039;-64
2023/07/31 01:15:18;;;;;;;8.13;3.35;;;16.70;99.90;;;;;;5073207;28;20040;-64
2023/07/31 01:17:44;;;;;;;6.78;2.95;;;16.70;99.90;;;;;;5091313;28;20400;-64
2023/07/31 01:20:23;;;;;;;11.38;3.63;;;16.70;99.90;;;;;;5093619;28;20110;-64
2023/07/31 01:23:00;;;;;;;10.75;3.50;;;16.70;99.90;;;;;;5094203;28;20048;-63
2023/07/31 01:26:02;;;;;;;7.25;2.83;;;16.70;99.90;;;;;;5096360;28;20511;-64
2023/07/31 01:28:40;;;;;;;8.45;3.72;;;16.70;99.90;;;;;;5095905;28;20051;-64
2023/07/31 01:31:07;;;;;;;8.38;3.65;;;16.60;99.90;;;;;;5094450;28;20048;-64
2023/07/31 01:33:34;;;;;;;8.65;3.20;;;16.70;99.90;;;;;;5078219;28;20058;-64
2023/07/31 01:36:01;;;;;;;10.65;3.50;;;16.70;99.90;;;;;;5094585;28;20048;-64
2023/07/31 01:38:26;;;;;;;10.38;4.05;;;16.70;99.90;;;;;;5095543;28;20044;-64
2023/07/31 01:40:53;;;;;;;10.50;3.03;;;16.70;99.90;;;;;;5094269;28;20561;-63
2023/07/31 01:43:19;;;;;;;10.73;3.40;;;16.70;99.90;;;;;;5096319;28;20036;-63
2023/07/31 01:45:44;;;;;;;10.63;3.17;;;16.60;99.90;;;;;;5094463;28;20404;-63
2023/07/31 01:48:10;;;;;;;8.10;2.78;;;16.70;99.90;;;;;;5095862;28;20037;-63
2023/07/31 01:50:36;;;;;;;11.02;3.03;;;16.60;99.90;;;;;;5094733;28;20459;-63
2023/07/31 01:53:02;;;;;;;10.13;3.03;;;16.60;99.90;;;;;;5095671;28;20071;-64
2023/07/31 01:55:27;;;;;;;11.73;2.97;;;16.60;99.90;;;;;;5095535;28;20047;-63
2023/07/31 01:57:53;;;;;;;8.63;2.92;;;16.60;99.90;;;;;;5093386;28;20044;-64
2023/07/31 02:00:19;;;;;;;8.13;3.28;;;16.50;99.90;;;;;;5094449;28;20051;-64
2023/07/31 02:02:45;;;;;;;14.35;3.67;;;16.50;99.90;;;;;;5095211;28;20043;-64
2023/07/31 02:05:10;;;;;;;10.02;2.65;;;16.50;99.90;;;;;;5094891;28;20044;-63
2023/07/31 02:07:36;;;;;;;9.63;2.80;;;16.50;99.90;;;;;;5095058;28;20503;-63
2023/07/31 02:10:02;;;;;;;9.57;2.97;;;16.50;99.90;;;;;;5093919;28;20400;-64
2023/07/31 02:12:30;;;;;;;9.52;2.83;;;16.40;99.90;;;;;;5092886;28;20084;-64
2023/07/31 02:14:56;;;;;;;5.93;2.63;;;16.50;99.90;;;;;;5095069;28;20111;-64
2023/07/31 02:17:21;;;;;;;8.98;2.88;;;16.50;99.90;;;;;;5095223;28;20113;-64
2023/07/31 02:19:47;;;;;;;10.43;3.03;;;16.50;99.90;;;;;;5093969;28;20055;-64
2023/07/31 02:22:13;;;;;;;14.68;2.53;;;16.50;99.90;;;;;;5093974;28;20044;-64
2023/07/31 02:24:38;;;;;;;7.78;2.33;;;16.40;99.90;;;;;;5095099;28;20068;-64
2023/07/31 02:27:04;;;;;;;7.53;2.63;;;16.40;99.90;;;;;;5092638;28;20400;-64
2023/07/31 02:29:30;;;;;;;10.48;2.72;;;16.40;99.90;;;;;;5093828;28;20413;-64
2023/07/31 02:31:56;;;;;;;8.85;2.50;;;16.40;99.90;;;;;;5093709;28;20032;-63
2023/07/31 02:34:21;;;;;;;8.70;2.50;;;16.40;99.90;;;;;;5094144;28;20115;-63
2023/07/31 02:36:47;;;;;;;6.88;2.72;;;16.40;99.90;;;;;;5092840;28;20551;-63
2023/07/31 02:39:12;;;;;;;6.07;2.40;;;16.40;99.90;;;;;;5094668;28;20038;-63
2023/07/31 02:41:38;;;;;;;8.77;3.30;;;16.40;99.90;;;;;;5094016;28;20472;-63
2023/07/31 02:44:04;;;;;;;8.50;3.15;;;16.40;99.90;;;;;;5094752;28;20477;-64
2023/07/31 02:46:30;;;;;;;9.40;2.85;;;16.40;99.90;;;;;;5110225;28;20488;-64
2023/07/31 02:48:55;;;;;;;7.70;2.55;;;16.40;99.90;;;;;;5126357;27;20043;-64
2023/07/31 02:51:21;;;;;;;7.65;2.55;;;16.40;99.90;;;;;;5127359;27;20040;-63
2023/07/31 02:53:47;;;;;;;6.97;2.58;;;16.30;99.90;;;;;;5092198;28;20455;-63
2023/07/31 02:56:13;;;;;;;9.15;3.40;;;16.40;99.90;;;;;;5094590;28;20453;-64
2023/07/31 02:58:39;;;;;;;7.40;3.05;;;16.40;99.90;;;;;;5092758;28;20036;-64
2023/07/31 03:01:05;;;;;;;10.15;2.83;;;16.30;99.90;;;;;;5126695;27;20101;-64
2023/07/31 03:03:31;;;;;;;5.90;2.40;;;16.30;99.90;;;;;;5076287;28;20045;-64
2023/07/31 03:05:56;;;;;;;7.28;2.80;;;16.30;99.90;;;;;;5093868;28;20111;-64
2023/07/31 03:08:22;;;;;;;6.00;2.45;;;16.40;99.90;;;;;;5093555;28;20044;-64
2023/07/31 03:10:48;;;;;;;8.27;2.13;;;16.30;99.90;;;;;;5092327;28;20488;-64
2023/07/31 03:13:14;;;;;;;8.52;2.30;;;16.30;99.90;;;;;;5093093;28;20039;-64
2023/07/31 03:15:43;;;;;;;8.07;2.58;;;16.30;99.90;;;;;;5125916;27;20059;-64
2023/07/31 03:18:14;;;;;;;5.78;2.20;;;16.30;99.90;;;;;;5094132;28;20044;-64
2023/07/31 03:20:45;;;;;;;6.32;2.53;;;16.30;99.90;;;;;;5093485;28;20044;-64
2023/07/31 03:23:11;;;;;;;6.97;2.20;;;16.30;99.90;;;;;;5126209;27;20059;-64
2023/07/31 03:25:37;;;;;;;6.32;2.33;;;16.30;99.90;;;;;;5126789;27;20040;-64
2023/07/31 03:28:03;;;;;;;6.03;2.47;;;16.30;99.90;;;;;;5126388;27;20488;-64
2023/07/31 03:30:28;;;;;;;4.93;2.15;;;16.20;99.90;;;;;;5092934;28;20059;-64
2023/07/31 03:32:54;;;;;;;5.03;2.00;;;16.10;99.90;;;;;;5093672;28;20032;-64
2023/07/31 03:35:20;;;;;;;4.32;1.98;;;16.20;99.90;;;;;;5093622;28;20201;-64
2023/07/31 03:37:45;;;;;;;4.20;1.55;;;16.10;99.90;;;;;;5092293;28;20033;-64
2023/07/31 03:40:11;;;;;;;4.57;1.45;;;16.00;99.90;;;;;;5093851;28;20542;-64
2023/07/31 03:42:37;;;;;;;3.97;1.27;;;16.10;99.90;;;;;;5125973;27;20462;-64
2023/07/31 03:45:03;;;;;;;4.60;1.70;;;16.00;99.90;;;;;;5092675;28;20047;-64
2023/07/31 03:47:29;;;;;;;4.65;2.47;;;16.00;99.90;;;;;;5091708;28;20054;-64
2023/07/31 03:49:54;;;;;;;3.40;1.20;;;16.00;99.90;;;;;;5093456;28;20484;-64
2023/07/31 03:52:20;;;;;;;3.30;1.20;;;16.00;99.90;;;;;;5092614;28;20052;-64
2023/07/31 03:54:46;;;;;;;4.32;1.50;;;15.90;99.90;;;;;;5093138;28;20111;-64
2023/07/31 03:57:11;;;;;;;5.93;1.92;;;15.90;99.90;;;;;;5091220;28;20051;-64
2023/07/31 03:59:39;;;;;;;5.15;1.40;;;15.90;99.90;;;;;;5126154;27;20040;-64
2023/07/31 04:02:05;;;;;;;3.30;1.30;;;15.90;99.90;;;;;;5108863;28;20044;-64
2023/07/31 04:04:31;;;;;;;2.50;1.15;;;15.90;99.90;;;;;;5107896;28;20384;-64
2023/07/31 04:06:56;;;;;;;3.28;1.85;;;15.90;99.90;;;;;;5074435;28;20044;-64
2023/07/31 04:09:22;;;;;;;2.88;1.27;;;15.90;99.90;;;;;;5092169;28;20154;-64
2023/07/31 04:11:47;;;;;;;4.15;1.20;;;15.90;99.90;;;;;;5091977;28;20101;-64
2023/07/31 04:14:13;;;;;;;3.53;1.52;;;15.90;99.90;;;;;;5093217;28;20028;-64
2023/07/31 04:16:39;;;;;;;6.18;1.27;;;15.90;99.90;;;;;;5125302;27;20040;-64
2023/07/31 04:19:04;;;;;;;3.55;1.42;;;15.90;99.90;;;;;;5092294;28;20044;-64
2023/07/31 04:21:30;;;;;;;3.10;1.15;;;15.90;99.90;;;;;;5092647;28;20471;-64
2023/07/31 04:23:56;;;;;;;2.67;1.02;;;16.00;99.90;;;;;;5125506;27;20065;-64
2023/07/31 04:26:22;;;;;;;2.40;1.20;;;16.00;99.90;;;;;;5124677;27;20405;-64
2023/07/31 04:28:48;;;;;;;2.63;1.20;;;16.10;99.90;;;;;;5090924;28;20123;-64
2023/07/31 04:31:13;;;;;;;5.35;1.98;;;16.10;99.90;;;;;;5125730;27;20115;-64
2023/07/31 04:33:39;;;;;;;3.83;1.77;;;16.10;99.90;;;;;;5107569;28;20047;-64
2023/07/31 04:36:05;;;;;;;2.72;1.20;;;16.10;99.90;;;;;;5125690;27;20044;-64
2023/07/31 04:38:30;;;;;;;5.28;1.50;;;16.10;99.90;;;;;;5124651;27;20082;-64
2023/07/31 04:40:56;;;;;;;3.53;1.50;;;16.10;99.90;;;;;;5124252;27;20071;-64
2023/07/31 04:43:22;;;;;;;4.03;1.50;;;16.10;99.90;;;;;;5125447;27;20047;-64
2023/07/31 04:45:48;;;;;;;3.75;1.70;;;16.10;99.90;;;;;;5073959;28;20056;-64
2023/07/31 04:48:14;;;;;;;3.92;1.52;;;16.10;99.90;;;;;;5091527;28;20392;-64
2023/07/31 04:50:40;;;;;;;5.38;1.60;;;16.10;99.90;;;;;;5092045;28;20059;-64
2023/07/31 04:53:05;;;;;;;4.60;1.73;;;16.20;99.90;;;;;;5092302;28;20044;-64
2023/07/31 04:55:31;;;;;;;5.78;1.58;;;16.10;99.90;;;;;;5090935;28;20067;-64
2023/07/31 04:57:59;;;;;;;5.75;1.95;;;16.20;99.90;;;;;;5124393;27;20043;-64
2023/07/31 05:00:24;;;;;;;5.05;1.80;;;16.10;99.90;;;;;;5090347;28;20044;-64
2023/07/31 05:02:50;;;;;;;6.22;2.10;;;16.20;99.90;;;;;;5091753;28;20047;-64
2023/07/31 05:05:16;;;;;;;13.75;2.40;;;16.20;99.90;;;;;;5090469;28;20101;-64
2023/07/31 05:07:42;;;;;;;6.68;2.78;;;16.20;99.90;;;;;;5089562;28;20044;-64
2023/07/31 05:10:08;;;;;;;7.28;3.30;;;16.20;99.90;;;;;;5091130;28;20048;-64
2023/07/31 05:12:33;;;;;;;6.50;3.15;;;16.20;99.90;;;;;;5092188;28;20075;-64
2023/07/31 05:14:59;;;;;;;7.53;2.70;;;16.30;99.90;;;;;;5089963;28;20068;-64
2023/07/31 05:17:25;;;;;;;8.77;3.10;;;16.30;99.90;;;;;;5091017;28;20097;-64
2023/07/31 05:19:50;;;;;;;8.23;3.15;;;16.30;99.90;;;;;;5091953;28;20071;-64
2023/07/31 05:22:16;;;;;;;7.70;3.95;;;16.30;99.90;;;;;;5091503;28;20078;-64
2023/07/31 05:24:42;;;;;;;7.82;3.08;;;16.40;99.90;;;;;;5091941;28;20040;-64
2023/07/31 05:27:08;;;;;;;12.27;3.78;;;16.40;99.90;;;;;;5092155;28;20048;-64
2023/07/31 05:29:33;;;;;;;10.30;3.38;;;16.40;99.90;;;;;;5089968;28;20072;-64
2023/07/31 05:31:59;;;;;;;7.72;3.50;;;16.40;99.90;;;;;;5090691;28;20083;-64
2023/07/31 05:34:25;;;;;;;11.98;3.95;;;16.40;99.90;;;;;;5092441;28;20036;-63
2023/07/31 05:36:50;;;;;;;10.13;4.18;;;16.50;99.90;;;;;;5090388;28;20035;-63
2023/07/31 05:39:16;;;;;;;13.43;3.72;;;16.40;99.90;;;;;;5089670;28;20044;-65
2023/07/31 05:41:42;;;;;;;13.75;4.57;;;16.40;99.90;;;;;;5090084;28;20127;-68
2023/07/31 05:44:07;;;;;;;8.57;3.97;;;16.50;99.90;;;;;;5089888;28;20090;-67
2023/07/31 05:46:33;;;;;;;6.90;3.30;;;16.40;99.90;;;;;;5090148;28;20065;-67
2023/07/31 05:49:00;;;;;;;10.13;3.88;;;16.50;99.90;;;;;;5091777;28;20182;-67
2023/07/31 05:51:27;;;;;;;12.80;4.00;;;16.50;99.90;;;;;;5089369;28;20515;-67
2023/07/31 05:53:53;;;;;;;11.77;4.38;;;16.50;99.90;;;;;;5090304;28;20054;-67
2023/07/31 05:56:19;;;;;;;10.25;4.05;;;16.40;99.90;;;;;;5091449;28;20036;-67
2023/07/31 05:58:44;;;;;;;14.07;5.80;;;16.60;99.90;;;;;;5101919;28;20472;-67
2023/07/31 06:01:10;;;;;;;16.52;4.85;;;16.50;99.90;;;;;;5121454;28;20044;-67
2023/07/31 06:03:35;;;;;;;12.13;5.80;;;16.50;99.90;;;;;;5089261;28;20128;-67
2023/07/31 06:06:01;;;;;;;16.38;5.63;;;16.50;99.90;;;;;;5119355;27;20056;-67
2023/07/31 06:08:27;;;;;;;9.63;4.93;;;16.50;99.90;;;;;;5095527;28;20126;-67
2023/07/31 06:10:53;;;;;;;14.70;4.93;;;16.50;99.90;;;;;;5094441;28;20035;-67
2023/07/31 06:13:19;;;;;;;15.18;5.47;;;16.50;99.90;;;;;;5094100;28;20044;-67
2023/07/31 06:15:44;;;;;;;9.73;4.20;;;16.60;99.90;;;;;;5090095;28;20116;-67
2023/07/31 06:18:10;;;;;;;10.50;3.85;;;16.60;99.90;;;;;;5090962;28;20124;-66
2023/07/31 06:20:36;;;;;;;7.82;3.42;;;16.70;99.90;;;;;;5091882;28;20093;-67
2023/07/31 06:23:03;;;;;;;9.13;3.30;;;16.60;99.90;;;;;;5090610;28;20040;-66
2023/07/31 06:25:29;;;;;;;10.45;3.85;;;16.60;99.90;;;;;;5091386;28;20052;-67
2023/07/31 06:27:54;;;;;;;10.00;3.75;;;16.70;99.90;;;;;;5091617;28;20044;-67
2023/07/31 06:30:20;;;;;;;11.10;3.47;;;16.60;99.90;;;;;;5090573;28;20515;-67
2023/07/31 06:32:46;;;;;;;8.05;3.55;;;16.70;99.90;;;;;;5091044;28;20036;-66
2023/07/31 06:35:11;;;;;;;9.70;3.17;;;16.70;99.90;;;;;;5090727;28;20047;-67
2023/07/31 06:37:40;;;;;;;10.88;3.90;;;16.80;99.90;;;;;;5089911;28;20046;-67
2023/07/31 06:40:08;;;;;;;9.77;3.42;;;16.80;99.90;;;;;;5088756;28;20051;-67
2023/07/31 06:42:35;;;;;;;12.57;4.63;;;16.80;99.90;;;;;;5089804;28;20044;-66
2023/07/31 06:45:01;;;;;;;13.20;4.65;;;16.90;99.90;;;;;;5090007;28;20052;-67
2023/07/31 06:47:27;;;;;;;13.13;4.68;;;17.00;99.90;;;;;;5089346;28;20052;-67
2023/07/31 06:49:53;;;;;;;16.20;4.45;;;16.90;99.90;;;;;;5090121;28;20514;-67
2023/07/31 06:52:19;;;;;;;15.20;5.97;;;17.00;99.90;;;;;;5089770;28;20059;-67
2023/07/31 06:54:59;;;;;;;16.40;4.55;;;17.00;99.90;;;;;;5088846;28;20515;-67
2023/07/31 06:57:25;;;;;;;14.20;4.80;;;17.00;99.90;;;;;;5090156;28;20499;-67
2023/07/31 06:59:51;;;;;;;15.35;5.68;;;17.00;99.90;;;;;;5090987;28;20036;-67
2023/07/31 07:02:16;;;;;;;17.08;4.70;;;17.00;99.90;;;;;;5120103;27;20135;-67
2023/07/31 07:04:42;;;;;;;11.20;4.50;;;17.10;99.90;;;;;;5088998;28;20040;-67
2023/07/31 07:07:07;;;;;;;14.68;5.10;;;17.00;99.90;;;;;;5090565;28;20040;-67
2023/07/31 07:09:33;;;;;;;13.23;5.13;;;17.10;99.90;;;;;;5072964;28;20043;-67
2023/07/31 07:11:59;;;;;;;12.77;4.75;;;17.10;99.90;;;;;;5089677;28;20036;-67
2023/07/31 07:14:24;;;;;;;12.95;5.05;;;17.10;99.90;;;;;;5090824;28;20040;-67
2023/07/31 07:16:53;;;;;;;11.98;3.75;;;17.10;99.90;;;;;;5088445;28;20040;-67
2023/07/31 07:19:19;;;;;;;11.45;4.32;;;17.20;99.90;;;;;;5089586;28;20495;-67
2023/07/31 07:21:50;;;;;;;8.93;4.13;;;17.10;99.90;;;;;;5085507;28;20122;-66
2023/07/31 07:24:15;;;;;;;10.20;4.22;;;17.20;99.90;;;;;;5084980;28;20044;-67
2023/07/31 07:26:41;;;;;;;10.27;3.17;;;17.20;99.90;;;;;;5123432;27;20378;-66
2023/07/31 07:29:07;;;;;;;8.07;3.05;;;17.20;99.90;;;;;;5122639;27;20044;-66
2023/07/31 07:31:33;;;;;;;10.85;3.55;;;17.20;99.90;;;;;;5088764;28;20055;-66
2023/07/31 07:33:59;;;;;;;9.32;3.42;;;17.30;99.90;;;;;;5090749;28;20109;-66
2023/07/31 07:36:24;;;;;;;8.65;3.25;;;17.40;99.90;;;;;;5088616;28;20071;-66
2023/07/31 07:38:50;;;;;;;5.88;2.38;;;17.40;99.90;;;;;;5088806;28;20051;-66
2023/07/31 07:41:16;;;;;;;10.65;2.90;;;17.40;99.90;;;;;;5089891;28;20059;-66
2023/07/31 07:43:41;;;;;;;7.75;2.63;;;17.40;99.90;;;;;;5070774;28;20036;-66
2023/07/31 07:46:07;;;;;;;5.75;2.22;;;17.50;99.90;;;;;;5090384;28;20063;-65
2023/07/31 07:48:33;;;;;;;6.40;2.22;;;17.50;99.90;;;;;;5089391;28;20036;-66
2023/07/31 07:50:58;;;;;;;5.03;2.00;;;17.60;99.90;;;;;;5122103;27;20511;-66
2023/07/31 07:53:24;;;;;;;5.95;1.95;;;17.60;99.90;;;;;;5089406;28;20565;-65
2023/07/31 07:55:50;;;;;;;4.90;1.90;;;17.70;99.90;;;;;;5072784;28;20051;-65
2023/07/31 07:58:15;;;;;;;5.35;1.60;;;17.70;99.90;;;;;;5088990;28;20031;-65
2023/07/31 08:00:41;;;;;;;4.65;1.67;;;17.70;99.90;;;;;;5123458;27;20048;-65
2023/07/31 08:03:07;;;;;;;4.53;1.95;;;17.70;99.90;;;;;;5091522;28;20075;-65
2023/07/31 08:05:34;;;;;;;4.05;1.75;;;17.70;99.90;;;;;;5089154;28;20040;-66
2023/07/31 08:08:00;;;;;;;5.72;1.83;;;17.60;99.90;;;;;;5072398;28;20036;-65
2023/07/31 08:10:25;;;;;;;3.90;1.40;;;17.70;99.90;;;;;;5103607;28;20088;-66
2023/07/31 08:12:51;;;;;;;2.50;1.17;;;17.70;99.90;;;;;;5099749;28;20408;-66
2023/07/31 08:15:16;;;;;;;3.80;1.17;;;17.60;99.90;;;;;;5089018;28;20477;-66
2023/07/31 08:17:42;;;;;;;4.18;1.40;;;17.80;99.90;;;;;;5087867;28;20465;-66
2023/07/31 08:20:09;;;;;;;2.97;1.08;;;17.70;99.90;;;;;;5072819;28;20043;-66
2023/07/31 08:22:34;;;;;;;2.40;0.90;;;17.80;99.90;;;;;;5088472;28;20086;-66
2023/07/31 08:25:00;;;;;;;2.38;0.90;;;17.90;99.90;;;;;;5095614;28;20047;-68
2023/07/31 08:27:26;;;;;;;3.13;1.00;;;17.90;99.90;;;;;;5094542;28;20050;-68
2023/07/31 08:29:52;;;;;;;1.42;0.70;;;17.90;99.90;;;;;;5121678;27;20536;-68
2023/07/31 08:32:18;;;;;;;2.45;0.90;;;17.90;99.90;;;;;;5088952;28;20500;-67
2023/07/31 08:34:44;;;;;;;1.13;0.63;;;17.90;99.90;;;;;;5089954;28;20047;-67
2023/07/31 08:37:11;;;;;;;2.15;0.93;;;18.00;99.90;;;;;;5089163;28;20046;-67
2023/07/31 08:39:39;;;;;;;3.13;0.82;;;18.00;99.90;;;;;;5070937;28;20044;-67
2023/07/31 08:42:08;;;;;;;1.80;0.73;;;18.10;99.90;;;;;;5089818;28;20044;-68
2023/07/31 08:44:34;;;;;;;1.30;0.63;;;18.20;99.90;;;;;;5071622;28;20044;-67
2023/07/31 08:47:00;;;;;;;3.00;1.10;;;18.30;99.90;;;;;;5087972;28;20093;-68
2023/07/31 08:49:27;;;;;;;2.50;0.77;;;18.50;99.90;;;;;;5083251;28;20166;-68
2023/07/31 08:51:53;;;;;;;2.60;0.80;;;18.60;99.90;;;;;;5070334;28;20501;-68
2023/07/31 08:54:21;;;;;;;2.95;1.10;;;18.70;99.90;;;;;;5071012;28;20146;-68
2023/07/31 08:56:47;;;;;;;3.55;0.90;;;18.80;99.90;;;;;;5071192;28;20055;-68
2023/07/31 08:59:17;;;;;;;4.55;1.40;;;18.80;99.90;;;;;;5087949;28;20044;-68
2023/07/31 09:01:45;;;;;;;5.03;1.10;;;18.80;99.90;;;;;;5088819;28;20044;-67
2023/07/31 09:04:14;;;;;;;5.55;1.40;;;18.80;99.90;;;;;;5087822;28;20571;-67
2023/07/31 09:06:40;;;;;;;3.33;1.30;;;18.80;99.90;;;;;;5087185;28;20051;-68
2023/07/31 09:09:09;;;;;;;3.03;1.10;;;18.80;99.90;;;;;;5088235;28;20128;-67
2023/07/31 09:11:35;;;;;;;5.05;1.50;;;18.80;99.90;;;;;;5063476;28;20492;-67
2023/07/31 09:14:08;;;;;;;3.40;1.27;;;18.60;99.90;;;;;;5070665;28;20494;-67
2023/07/31 09:16:34;;;;;;;5.78;1.10;;;18.60;99.90;;;;;;5088185;28;20044;-66
2023/07/31 09:19:01;;;;;;;5.45;1.20;;;18.50;99.90;;;;;;5088352;28;20036;-66
2023/07/31 09:21:28;;;;;;;6.95;1.75;;;18.50;99.90;;;;;;5089371;28;20040;-66
2023/07/31 09:23:54;;;;;;;3.85;1.45;;;18.50;99.90;;;;;;5088283;28;20369;-66
2023/07/31 09:26:32;;;;;;;4.68;1.50;;;18.40;99.90;;;;;;5089445;28;20058;-66
2023/07/31 09:29:03;;;;;;;3.50;1.80;;;18.50;99.90;;;;;;5087218;28;20388;-65
2023/07/31 09:31:40;;;;;;;7.88;1.55;;;18.40;99.90;;;;;;5088155;28;20044;-64
2023/07/31 09:34:06;;;;;;;4.68;1.60;;;18.40;99.90;;;;;;5089647;28;20450;-64
2023/07/31 09:36:31;;;;;;;5.88;1.60;;;18.30;99.90;;;;;;5121983;28;20036;-65
2023/07/31 09:39:04;;;;;;;4.95;2.03;;;18.20;99.90;;;;;;5088592;28;20574;-66
2023/07/31 09:41:31;;;;;;;3.38;1.42;;;18.30;99.90;;;;;;5092346;28;20032;-64
2023/07/31 09:43:57;;;;;;;5.82;2.05;;;18.30;99.90;;;;;;5091476;28;20046;-66
2023/07/31 09:46:27;;;;;;;3.72;1.38;;;18.30;99.90;;;;;;5093324;28;20181;-66
2023/07/31 09:48:53;;;;;;;2.92;1.00;;;18.30;99.90;;;;;;5092454;28;20028;-66
2023/07/31 09:51:27;;;;;;;3.88;1.30;;;18.40;99.90;;;;;;5125646;27;20400;-67
2023/07/31 09:53:52;;;;;;;2.88;1.10;;;18.30;99.90;;;;;;5074802;28;20052;-66
2023/07/31 09:56:19;;;;;;;3.08;1.23;;;18.20;99.90;;;;;;5091160;28;20046;-66
2023/07/31 09:58:45;;;;;;;4.95;1.30;;;18.20;99.90;;;;;;5091655;28;20051;-65
2023/07/31 10:01:11;;;;;;;3.55;1.10;;;18.30;99.90;;;;;;5126339;27;20051;-66
2023/07/31 10:03:38;;;;;;;2.17;0.90;;;18.40;99.90;;;;;;5091958;28;20127;-67
2023/07/31 10:06:05;;;;;;;2.60;0.82;;;18.30;99.90;;;;;;5091607;28;20044;-65
2023/07/31 10:08:36;;;;;;;2.72;1.00;;;18.50;99.90;;;;;;5091280;28;20048;-67
2023/07/31 10:11:05;;;;;;;1.90;0.98;;;18.50;99.90;;;;;;5090892;28;20040;-67
2023/07/31 10:13:32;;;;;;;1.92;0.75;;;18.60;99.90;;;;;;5091619;28;20131;-67
2023/07/31 10:16:00;;;;;;;2.92;0.80;;;18.50;99.90;;;;;;5092819;28;20055;-70
2023/07/31 10:18:26;;;;;;;1.98;0.70;;;18.50;99.90;;;;;;5091117;28;20123;-66
2023/07/31 10:20:52;;;;;;;1.85;0.82;;;18.50;99.90;;;;;;5092390;28;20048;-66
2023/07/31 10:23:18;;;;;;;1.85;0.73;;;18.50;99.90;;;;;;5091227;28;20044;-66
2023/07/31 10:25:45;;;;;;;3.63;0.90;;;18.50;99.90;;;;;;5089810;28;20044;-66
2023/07/31 10:28:11;;;;;;;2.10;0.70;;;18.50;99.90;;;;;;5092633;28;20055;-66
2023/07/31 10:30:39;;;;;;;2.40;0.80;;;18.60;99.90;;;;;;5091702;28;20373;-66
2023/07/31 10:33:05;;;;;;;2.58;0.75;;;18.50;99.90;;;;;;5092388;28;20043;-66
2023/07/31 10:35:31;;;;;;;0.60;0.43;;;18.50;99.90;;;;;;5092767;28;20151;-66
2023/07/31 10:38:10;;;;;;;3.42;0.93;;;18.70;99.90;;;;;;5091795;28;20119;-66
2023/07/31 10:40:36;;;;;;;3.00;1.13;;;18.70;99.90;;;;;;5090356;28;20044;-66
2023/07/31 10:43:04;;;;;;;2.67;1.00;;;18.80;99.90;;;;;;5124651;27;20354;-66
2023/07/31 10:45:32;;;;;;;1.55;0.60;;;18.90;99.90;;;;;;5085949;28;20113;-66
2023/07/31 10:48:05;;;;;;;2.33;1.08;;;18.80;99.90;;;;;;5091745;28;20131;-66
2023/07/31 10:50:52;;;;;;;2.88;1.00;;;18.80;99.90;;;;;;5091352;28;20040;-66
2023/07/31 10:53:30;;;;;;;2.17;0.90;;;18.80;99.90;;;;;;5086213;28;20055;-67
2023/07/31 10:56:04;;;;;;;3.25;1.30;;;18.70;99.90;;;;;;5094464;28;20388;-66
2023/07/31 10:58:33;;;;;;;2.63;1.30;;;18.80;99.90;;;;;;5112431;28;20047;-66
2023/07/31 11:01:02;;;;;;;3.30;1.40;;;18.70;99.90;;;;;;5112672;28;20078;-66
2023/07/31 11:03:52;;;;;;;4.00;1.50;;;18.80;99.90;;;;;;5094790;28;20036;-66
2023/07/31 11:06:18;;;;;;;5.00;1.70;;;19.00;99.90;;;;;;5099131;28;20070;-65
2023/07/31 11:08:46;;;;;;;6.78;2.45;;;19.10;99.90;;;;;;5092319;28;20039;-65
2023/07/31 11:11:13;;;;;;;7.55;2.33;;;19.10;99.90;;;;;;5098031;28;20032;-65
2023/07/31 11:13:51;;;;;;;7.20;2.35;;;19.30;99.90;;;;;;5087040;28;20040;-66
2023/07/31 11:16:20;;;;;;;5.80;2.83;;;19.30;99.90;;;;;;5090583;28;20050;-65
2023/07/31 11:18:48;;;;;;;6.95;2.30;;;19.40;99.90;;;;;;5073260;28;20040;-65
2023/07/31 11:21:24;;;;;;;4.40;2.00;;;19.50;99.90;;;;;;5103197;28;20052;-65
2023/07/31 11:23:53;;;;;;;5.72;2.10;;;19.50;99.90;;;;;;5108706;28;20054;-65
2023/07/31 11:26:20;;;;;;;6.60;2.20;;;19.40;99.90;;;;;;5110728;28;20040;-65
2023/07/31 11:28:49;;;;;;;5.55;1.75;;;19.20;99.90;;;;;;5108894;28;20040;-65
2023/07/31 11:31:15;;;;;;;4.78;1.90;;;19.20;99.90;;;;;;5087341;28;20078;-65
2023/07/31 11:33:40;;;;;;;4.32;1.65;;;19.10;99.90;;;;;;5075345;28;20133;-65
2023/07/31 11:36:06;;;;;;;5.50;1.70;;;19.10;99.90;;;;;;5096959;28;20368;-65
2023/07/31 11:38:33;;;;;;;5.30;1.95;;;19.10;99.90;;;;;;5090127;28;20051;-65
2023/07/31 11:41:02;;;;;;;5.70;1.80;;;19.20;99.90;;;;;;5073063;28;20040;-65
2023/07/31 11:43:29;;;;;;;6.90;2.00;;;19.20;99.90;;;;;;5094081;28;20472;-66
2023/07/31 11:45:57;;;;;;;9.20;2.60;;;19.10;99.90;;;;;;5093801;28;20420;-65
2023/07/31 11:48:33;;;;;;;6.05;2.05;;;18.90;99.90;;;;;;5100767;28;20053;-64
2023/07/31 11:51:00;;;;;;;6.93;2.35;;;18.90;99.90;;;;;;5093168;28;20048;-65
2023/07/31 11:53:37;;;;;;;4.55;1.92;;;18.70;99.90;;;;;;5093885;28;20045;-66
2023/07/31 11:56:06;;;;;;;7.70;2.45;;;18.60;99.90;;;;;;5093209;28;20500;-66
2023/07/31 11:58:34;;;;;;;4.57;2.28;;;18.60;99.90;;;;;;5093362;28;20074;-65
2023/07/31 12:01:01;;;;;;;5.15;2.10;;;18.70;99.90;;;;;;5092293;28;20617;-66
2023/07/31 12:03:27;;;;;;;5.90;2.30;;;18.70;99.90;;;;;;5091235;28;20101;-65
2023/07/31 12:05:53;;;;;;;7.47;2.10;;;18.90;99.90;;;;;;5092098;28;20074;-65
2023/07/31 12:08:22;;;;;;;5.78;1.80;;;19.00;99.90;;;;;;5091872;28;20040;-65
2023/07/31 12:10:51;;;;;;;4.55;1.50;;;19.10;99.90;;;;;;5089812;28;20036;-66
2023/07/31 12:13:26;;;;;;;4.72;1.90;;;19.20;99.90;;;;;;5091903;28;20115;-66
2023/07/31 12:15:57;;;;;;;5.35;1.67;;;19.30;99.90;;;;;;5091368;28;20048;-65
2023/07/31 12:18:24;;;;;;;3.42;1.58;;;19.20;99.90;;;;;;5092415;28;20088;-65
2023/07/31 12:21:00;;;;;;;5.28;1.70;;;19.20;99.90;;;;;;5094668;28;20438;-65
2023/07/31 12:23:31;;;;;;;6.13;2.28;;;19.20;99.90;;;;;;5112703;28;20412;-65
2023/07/31 12:26:20;;;;;;;5.22;2.47;;;19.20;99.90;;;;;;5104188;28;20067;-66
2023/07/31 12:28:48;;;;;;;7.57;2.42;;;19.30;99.90;;;;;;5080491;28;20059;-66
2023/07/31 12:31:19;;;;;;;7.25;2.78;;;19.30;99.90;;;;;;5090699;28;20044;-65
2023/07/31 12:33:46;;;;;;;5.70;2.03;;;19.40;99.90;;;;;;5092423;28;20177;-65
2023/07/31 12:36:24;;;;;;;6.88;2.70;;;19.50;99.90;;;;;;5091327;28;20114;-65
2023/07/31 12:38:50;;;;;;;5.55;2.40;;;19.40;99.90;;;;;;5090416;28;20036;-65
2023/07/31 12:41:17;;;;;;;10.18;3.25;;;19.40;99.90;;;;;;5091334;28;20043;-65
2023/07/31 12:43:44;;;;;;;7.20;2.28;;;19.40;99.90;;;;;;5074201;28;20477;-66
2023/07/31 12:46:11;;;;;;;10.25;3.35;;;19.30;99.90;;;;;;5073005;28;20165;-66